createdAt,value
2023-08-27T00:00:28.210Z,61.98
2023-08-27T00:09:11.745Z,61.82
2023-08-27T00:17:36.428Z,61.97
2023-08-27T00:25:59.465Z,62.18
2023-08-27T00:34:22.620Z,62.10
2023-08-27T00:42:45.653Z,62.20
2023-08-27T00:51:09.303Z,62.15
2023-08-27T00:59:33.101Z,62.01
2023-08-27T01:08:11.510Z,62.07
2023-08-27T01:16:36.922Z,62.34
2023-08-27T01:24:59.905Z,62.46
2023-08-27T01:33:27.432Z,62.42
2023-08-27T01:41:50.963Z,62.71
2023-08-27T01:50:14.039Z,62.83
2023-08-27T01:58:37.044Z,62.74
2023-08-27T02:07:00.021Z,62.77
2023-08-27T02:15:23.120Z,62.99
2023-08-27T02:23:46.209Z,63.04
2023-08-27T02:32:09.446Z,63.01
2023-08-27T02:40:33.057Z,63.09
2023-08-27T02:48:56.110Z,63.32
2023-08-27T02:57:21.132Z,63.20
2023-08-27T03:05:44.239Z,63.21
2023-08-27T03:14:08.364Z,63.42
2023-08-27T03:22:31.858Z,63.45
2023-08-27T03:30:55.405Z,63.66
2023-08-27T03:39:18.448Z,63.61
2023-08-27T03:47:41.578Z,63.75
2023-08-27T03:56:05.530Z,63.56
2023-08-27T04:04:29.905Z,63.90
2023-08-27T04:12:53.032Z,63.79
2023-08-27T04:21:16.053Z,64.19
2023-08-27T04:29:39.422Z,64.04
2023-08-27T04:38:04.669Z,64.12
2023-08-27T04:46:27.820Z,64.53
2023-08-27T04:54:51.011Z,64.39
2023-08-27T05:03:14.161Z,64.49
2023-08-27T05:11:40.288Z,64.46
2023-08-27T05:20:05.525Z,64.77
2023-08-27T05:28:28.598Z,64.83
2023-08-27T05:36:51.619Z,64.96
2023-08-27T05:45:14.669Z,64.99
2023-08-27T05:53:37.646Z,65.08
2023-08-27T06:02:01.173Z,65.34
2023-08-27T06:10:24.928Z,65.70
2023-08-27T06:18:49.368Z,65.81
2023-08-27T06:27:14.964Z,66.22
2023-08-27T06:35:37.943Z,66.44
2023-08-27T06:44:01.614Z,66.49
2023-08-27T06:52:25.397Z,66.68
2023-08-27T07:00:48.429Z,66.89
2023-08-27T07:09:11.482Z,66.82
2023-08-27T07:17:35.828Z,67.20
2023-08-27T07:25:58.818Z,67.04
2023-08-27T07:34:22.734Z,67.18
2023-08-27T07:42:46.028Z,67.17
2023-08-27T07:51:09.252Z,67.09
2023-08-27T07:59:33.548Z,67.34
2023-08-27T08:07:56.745Z,67.28
2023-08-27T08:16:20.659Z,67.17
2023-08-27T08:24:43.674Z,67.24
2023-08-27T08:33:06.650Z,67.31
2023-08-27T08:41:29.588Z,67.58
2023-08-27T08:49:58.676Z,67.41
2023-08-27T08:58:22.827Z,67.60
2023-08-27T09:06:46.416Z,67.79
2023-08-27T09:15:10.589Z,67.94
2023-08-27T09:23:39.051Z,68.03
2023-08-27T09:32:02.511Z,68.32
2023-08-27T09:40:25.639Z,68.32
2023-08-27T09:49:24.221Z,68.22
2023-08-27T09:57:51.313Z,68.24
2023-08-27T10:06:15.594Z,68.40
2023-08-27T10:14:43.373Z,68.61
2023-08-27T10:23:06.819Z,68.48
2023-08-27T10:31:29.815Z,68.72
2023-08-27T10:39:55.002Z,68.67
2023-08-27T10:48:26.176Z,68.58
2023-08-27T10:56:51.703Z,68.55
2023-08-27T11:05:15.101Z,68.67
2023-08-27T11:13:39.209Z,68.56
2023-08-27T11:22:15.404Z,68.75
2023-08-27T11:30:38.487Z,68.75
2023-08-27T11:39:07.191Z,68.47
2023-08-27T11:47:30.521Z,68.68
2023-08-27T11:55:53.686Z,68.47
2023-08-27T12:04:17.468Z,68.42
2023-08-27T12:12:41.336Z,68.30
2023-08-27T12:21:10.752Z,68.32
2023-08-27T12:29:41.648Z,68.34
2023-08-27T12:38:05.574Z,68.32
2023-08-27T12:46:28.751Z,68.19
2023-08-27T12:54:51.750Z,68.13
2023-08-27T13:03:14.843Z,68.26
2023-08-27T13:11:37.968Z,68.04
2023-08-27T13:20:01.765Z,68.04
2023-08-27T13:28:24.885Z,68.04
2023-08-27T13:36:47.901Z,68.04
2023-08-27T13:45:11.178Z,68.09
2023-08-27T13:53:34.233Z,68.10
2023-08-27T14:01:57.332Z,68.19
2023-08-27T14:10:20.332Z,68.09
2023-08-27T14:18:43.334Z,68.08
2023-08-27T14:27:06.448Z,68.07
2023-08-27T14:35:29.878Z,67.76
2023-08-27T14:43:53.199Z,67.81
2023-08-27T14:52:16.144Z,67.59
2023-08-27T15:00:39.414Z,67.54
2023-08-27T15:09:02.576Z,67.71
2023-08-27T15:17:25.653Z,67.67
2023-08-27T15:25:49.244Z,67.56
2023-08-27T15:34:13.506Z,67.68
2023-08-27T15:42:37.360Z,67.53
2023-08-27T15:51:00.401Z,67.26
2023-08-27T15:59:23.435Z,67.33
2023-08-27T16:07:46.563Z,67.37
2023-08-27T16:16:09.675Z,67.23
2023-08-27T16:24:33.326Z,67.21
2023-08-27T16:32:56.589Z,66.99
2023-08-27T16:41:19.818Z,67.09
2023-08-27T16:49:43.075Z,67.01
2023-08-27T16:58:07.258Z,67.07
2023-08-27T17:06:30.393Z,66.94
2023-08-27T17:14:54.930Z,66.90
2023-08-27T17:23:18.596Z,66.91
2023-08-27T17:31:41.733Z,66.63
2023-08-27T17:40:07.977Z,66.78
2023-08-27T17:48:31.495Z,66.77
2023-08-27T17:56:54.615Z,66.65
2023-08-27T18:05:17.670Z,66.64
2023-08-27T18:13:40.677Z,66.61
2023-08-27T18:22:03.839Z,66.58
2023-08-27T18:30:28.208Z,66.53
2023-08-27T18:38:51.252Z,66.47
2023-08-27T18:47:14.365Z,66.34
2023-08-27T18:55:37.374Z,66.31
2023-08-27T19:04:00.504Z,66.22
2023-08-27T19:12:23.478Z,66.21
2023-08-27T19:20:56.909Z,66.23
2023-08-27T19:29:19.986Z,66.27
2023-08-27T19:37:43.487Z,66.19
2023-08-27T19:46:06.512Z,66.22
2023-08-27T19:54:30.316Z,66.30
2023-08-27T20:02:53.440Z,66.23
2023-08-27T20:11:16.926Z,66.21
2023-08-27T20:19:40.360Z,66.28
2023-08-27T20:28:04.998Z,66.47
2023-08-27T20:36:28.076Z,66.26
2023-08-27T20:44:51.669Z,66.48
2023-08-27T20:53:14.639Z,66.49
2023-08-27T21:01:37.679Z,66.54
2023-08-27T21:10:00.651Z,66.44
2023-08-27T21:18:23.819Z,66.61
2023-08-27T21:26:47.017Z,66.47
2023-08-27T21:35:10.009Z,66.31
2023-08-27T21:43:33.010Z,66.56
2023-08-27T21:51:56.213Z,66.60
2023-08-27T22:00:19.823Z,66.68
2023-08-27T22:08:44.920Z,66.76
2023-08-27T22:17:09.335Z,66.81
2023-08-27T22:25:32.362Z,66.95
2023-08-27T22:33:57.790Z,66.72
2023-08-27T22:42:20.812Z,66.97
2023-08-27T22:50:43.829Z,67.14
2023-08-27T22:59:07.337Z,67.20
2023-08-27T23:07:30.377Z,67.29
2023-08-27T23:15:53.432Z,67.28
2023-08-27T23:24:19.553Z,67.28
2023-08-27T23:32:42.903Z,67.39
2023-08-27T23:41:06.446Z,67.49
2023-08-27T23:49:29.481Z,67.45
2023-08-27T23:57:52.476Z,67.61
